Time;durP1;ratioP1;P1;durP2;ratioP2;P2;SDS_P1;SDS_P2;PMS_P1;PMS_P2;Temp;Humidity;BMP_temperature;BMP_pressure;BME280_temperature;BME280_humidity;BME280_pressure;Samples;Min_cycle;Max_cycle;Signal;HPM_P1;HPM_P2
2022/01/25 00:24:19;;;;;;;25.90;14.83;;;;;;;;;;4734354;30;20611;-89
2022/01/25 00:28:21;;;;;;;27.53;14.33;;;;;;;;;;4736462;30;21284;-89
2022/01/25 00:31:25;;;;;;;25.03;14.10;;;;;;;;;;4759809;30;20564;-89
2022/01/25 00:34:30;;;;;;;28.00;15.60;;;;;;;;;;4739568;30;20568;-88
2022/01/25 00:37:34;;;;;;;23.87;15.00;;;;;;;;;;4727264;30;20604;-89
2022/01/25 00:40:38;;;;;;;24.93;15.40;;;;;;;;;;4732164;30;21112;-89
2022/01/25 00:43:42;;;;;;;24.40;13.33;;;;;;;;;;4722142;30;21203;-88
2022/01/25 00:46:47;;;;;;;25.33;14.57;;;;;;;;;;4737836;30;20704;-88
2022/01/25 00:49:53;;;;;;;29.30;14.50;;;;;;;;;;4739350;30;21159;-89
2022/01/25 00:56:02;;;;;;;28.13;14.93;;;;;;;;;;4748541;30;20599;-89
2022/01/25 00:59:09;;;;;;;25.40;13.80;;;;;;;;;;4731993;30;20561;-89
2022/01/25 01:02:14;;;;;;;27.50;14.20;;;;;;;;;;4721879;30;20639;-89
2022/01/25 01:05:18;;;;;;;27.50;15.10;;;;;;;;;;4737455;30;20643;-89
2022/01/25 01:08:48;;;;;;;28.63;15.10;;;;;;;;;;4738380;30;20674;-89
2022/01/25 01:11:59;;;;;;;34.33;14.97;;;;;;;;;;4728715;30;20679;-89
2022/01/25 01:15:20;;;;;;;31.03;15.03;;;;;;;;;;4742339;30;20612;-89
2022/01/25 01:29:18;;;;;;;43.47;14.00;;;;;;;;;;4744937;30;20624;-89
2022/01/25 01:32:24;;;;;;;35.20;14.70;;;;;;;;;;4736920;30;20671;-89
2022/01/25 01:42:29;;;;;;;30.17;15.97;;;;;;;;;;4734684;30;20640;-89
2022/01/25 01:48:59;;;;;;;26.30;14.13;;;;;;;;;;4735055;30;20651;-89
2022/01/25 01:52:03;;;;;;;25.00;13.93;;;;;;;;;;4724345;30;20667;-89
2022/01/25 01:55:09;;;;;;;25.30;14.40;;;;;;;;;;4732819;30;20619;-89
2022/01/25 01:58:15;;;;;;;27.33;14.33;;;;;;;;;;4752168;30;20572;-88
2022/01/25 02:01:20;;;;;;;27.83;15.10;;;;;;;;;;4741847;30;20932;-88
2022/01/25 02:04:26;;;;;;;32.07;14.20;;;;;;;;;;4738519;30;21208;-89
2022/01/25 02:07:30;;;;;;;24.23;13.57;;;;;;;;;;4734252;30;20624;-89
2022/01/25 02:10:34;;;;;;;32.47;15.57;;;;;;;;;;4724218;30;20569;-88
2022/01/25 02:13:41;;;;;;;31.07;14.80;;;;;;;;;;4746583;30;20627;-88
2022/01/25 02:23:37;;;;;;;31.20;14.80;;;;;;;;;;4745919;30;20595;-88
2022/01/25 02:26:42;;;;;;;29.83;15.13;;;;;;;;;;4741427;30;20572;-89
2022/01/25 02:29:46;;;;;;;27.77;13.93;;;;;;;;;;4751415;30;20560;-89
2022/01/25 02:32:50;;;;;;;27.60;14.37;;;;;;;;;;4750889;30;20670;-89
2022/01/25 02:35:56;;;;;;;28.80;14.83;;;;;;;;;;4741623;30;20563;-89
2022/01/25 02:39:01;;;;;;;28.87;15.00;;;;;;;;;;4750127;30;20560;-88
2022/01/25 02:42:06;;;;;;;28.10;14.13;;;;;;;;;;4746410;30;21261;-89
2022/01/25 02:45:15;;;;;;;26.83;14.70;;;;;;;;;;4761334;30;20560;-88
2022/01/25 02:48:30;;;;;;;28.47;16.10;;;;;;;;;;4761368;30;20627;-89
2022/01/25 02:51:37;;;;;;;28.47;16.20;;;;;;;;;;4723765;30;20643;-89
2022/01/25 02:54:41;;;;;;;25.83;12.97;;;;;;;;;;4749414;30;20604;-89
2022/01/25 02:57:49;;;;;;;27.10;15.07;;;;;;;;;;4750289;30;20976;-89
2022/01/25 03:00:52;;;;;;;25.23;13.37;;;;;;;;;;4741096;30;20568;-89
2022/01/25 03:03:57;;;;;;;35.30;14.50;;;;;;;;;;4740012;30;20643;-89
2022/01/25 03:07:02;;;;;;;33.07;14.30;;;;;;;;;;4750371;30;20628;-88
2022/01/25 03:10:06;;;;;;;26.43;13.33;;;;;;;;;;4739942;30;20608;-89
2022/01/25 03:13:35;;;;;;;30.30;15.23;;;;;;;;;;4745691;30;20672;-89
2022/01/25 03:17:29;;;;;;;23.23;12.90;;;;;;;;;;4733702;30;20613;-89
2022/01/25 03:20:18;;;;;;;27.97;14.40;;;;;;;;;;4738167;30;20572;-88
2022/01/25 03:23:22;;;;;;;23.23;12.13;;;;;;;;;;4723045;30;21300;-88
2022/01/25 03:26:26;;;;;;;23.97;12.97;;;;;;;;;;4733060;30;20557;-89
2022/01/25 03:29:30;;;;;;;26.80;13.77;;;;;;;;;;4733081;30;20553;-88
2022/01/25 03:32:34;;;;;;;24.33;12.93;;;;;;;;;;4722964;30;20668;-89
2022/01/25 03:35:39;;;;;;;23.47;13.47;;;;;;;;;;4723055;30;21104;-88
2022/01/25 03:38:43;;;;;;;25.67;13.80;;;;;;;;;;4732978;30;20552;-88
2022/01/25 03:41:47;;;;;;;24.47;13.37;;;;;;;;;;4733533;30;20683;-89
2022/01/25 03:44:52;;;;;;;32.70;14.83;;;;;;;;;;4742744;30;21104;-89
2022/01/25 03:51:15;;;;;;;26.73;13.37;;;;;;;;;;4732259;30;20561;-89
2022/01/25 03:54:19;;;;;;;24.67;12.47;;;;;;;;;;4750282;30;20564;-88
2022/01/25 03:57:25;;;;;;;27.27;13.00;;;;;;;;;;4733775;30;20608;-88
2022/01/25 04:00:30;;;;;;;28.23;14.40;;;;;;;;;;4736732;30;20619;-89
2022/01/25 04:03:40;;;;;;;25.17;12.93;;;;;;;;;;4722460;30;21187;-89
2022/01/25 04:06:48;;;;;;;29.33;13.27;;;;;;;;;;4732447;30;20931;-89
2022/01/25 04:09:52;;;;;;;27.80;12.90;;;;;;;;;;4743428;30;20612;-89
2022/01/25 04:12:57;;;;;;;25.13;12.10;;;;;;;;;;4726718;30;20687;-89
2022/01/25 04:16:09;;;;;;;27.00;13.07;;;;;;;;;;4722387;30;20560;-89
2022/01/25 04:19:25;;;;;;;27.80;12.23;;;;;;;;;;4741668;30;20642;-89
2022/01/25 04:25:52;;;;;;;24.30;12.53;;;;;;;;;;4749799;30;21111;-89
2022/01/25 04:28:56;;;;;;;27.47;12.50;;;;;;;;;;4741285;30;20648;-89
2022/01/25 04:32:00;;;;;;;26.40;12.63;;;;;;;;;;4751258;30;20667;-89
2022/01/25 04:35:27;;;;;;;31.63;14.33;;;;;;;;;;4722305;30;20564;-89
2022/01/25 04:49:01;;;;;;;40.80;15.43;;;;;;;;;;4745065;30;20652;-89
2022/01/25 04:52:12;;;;;;;33.10;14.03;;;;;;;;;;4722155;30;20675;-89
2022/01/25 04:55:36;;;;;;;40.20;13.83;;;;;;;;;;4741963;30;20634;-89
2022/01/25 04:58:56;;;;;;;33.80;14.10;;;;;;;;;;4749066;30;20608;-89
2022/01/25 05:02:09;;;;;;;34.43;14.27;;;;;;;;;;4739062;30;20668;-89
2022/01/25 05:05:40;;;;;;;30.63;14.77;;;;;;;;;;4735224;30;20985;-89
2022/01/25 05:08:50;;;;;;;34.60;14.80;;;;;;;;;;4725320;30;20655;-89
2022/01/25 05:11:57;;;;;;;34.80;14.60;;;;;;;;;;4725439;30;20671;-89
2022/01/25 05:15:18;;;;;;;33.67;15.00;;;;;;;;;;4742372;30;21003;-89
2022/01/25 05:18:35;;;;;;;50.00;15.13;;;;;;;;;;4742019;30;20576;-89
2022/01/25 05:25:02;;;;;;;32.97;15.53;;;;;;;;;;4734858;30;20568;-88
2022/01/25 05:28:06;;;;;;;38.80;14.27;;;;;;;;;;4724906;30;20627;-88
2022/01/25 05:31:10;;;;;;;33.40;15.40;;;;;;;;;;4744754;30;21120;-88
2022/01/25 05:34:15;;;;;;;34.80;14.67;;;;;;;;;;4734998;30;20576;-88
2022/01/25 05:37:31;;;;;;;30.83;14.20;;;;;;;;;;4737446;30;20607;-88
2022/01/25 05:40:45;;;;;;;32.10;14.90;;;;;;;;;;4724998;30;20612;-88
2022/01/25 05:47:15;;;;;;;39.27;15.00;;;;;;;;;;4734597;30;20568;-89
2022/01/25 05:50:19;;;;;;;34.93;14.17;;;;;;;;;;4752773;30;20592;-88
2022/01/25 05:53:24;;;;;;;28.67;13.83;;;;;;;;;;4773945;30;20636;-87
2022/01/25 05:56:29;;;;;;;30.83;15.20;;;;;;;;;;4745657;30;20553;-88
2022/01/25 05:59:33;;;;;;;39.30;13.60;;;;;;;;;;4741883;30;20614;-88
2022/01/25 06:02:38;;;;;;;30.00;13.67;;;;;;;;;;4751306;30;20670;-89
2022/01/25 06:05:42;;;;;;;43.47;13.63;;;;;;;;;;4741666;30;20638;-88
2022/01/25 06:08:47;;;;;;;30.37;13.90;;;;;;;;;;4742083;30;20619;-88
2022/01/25 06:11:55;;;;;;;38.70;12.23;;;;;;;;;;4741724;30;21249;-89
2022/01/25 06:14:59;;;;;;;33.33;13.43;;;;;;;;;;4741723;30;20572;-89
2022/01/25 06:18:04;;;;;;;28.90;13.20;;;;;;;;;;4751499;30;20577;-89
2022/01/25 06:21:08;;;;;;;30.80;13.47;;;;;;;;;;4724209;30;20576;-89
2022/01/25 06:24:12;;;;;;;29.77;13.50;;;;;;;;;;4734035;30;21113;-89
2022/01/25 06:27:16;;;;;;;30.30;13.90;;;;;;;;;;4724003;30;20572;-89
2022/01/25 06:30:21;;;;;;;33.03;13.87;;;;;;;;;;4733867;30;20557;-89
2022/01/25 06:33:25;;;;;;;33.80;14.43;;;;;;;;;;4723983;30;20644;-88
2022/01/25 06:36:29;;;;;;;34.27;14.23;;;;;;;;;;4740754;30;20714;-88
2022/01/25 06:39:33;;;;;;;35.63;14.07;;;;;;;;;;4751179;30;20615;-89
2022/01/25 06:42:38;;;;;;;44.37;15.13;;;;;;;;;;4751123;30;20655;-89
2022/01/25 06:45:44;;;;;;;41.93;13.50;;;;;;;;;;4741404;30;20560;-89
2022/01/25 06:48:48;;;;;;;39.17;13.50;;;;;;;;;;4738715;30;21067;-89
2022/01/25 06:51:52;;;;;;;30.23;14.07;;;;;;;;;;4740969;30;20643;-89
2022/01/25 06:54:56;;;;;;;38.27;16.73;;;;;;;;;;4741081;30;20564;-89
2022/01/25 06:58:00;;;;;;;43.63;14.37;;;;;;;;;;4751258;30;20571;-89
2022/01/25 07:01:04;;;;;;;52.87;11.97;;;;;;;;;;4751034;30;20904;-89
2022/01/25 07:04:08;;;;;;;26.83;12.90;;;;;;;;;;4740721;30;20598;-89
2022/01/25 07:07:12;;;;;;;48.87;13.27;;;;;;;;;;4740969;30;21111;-89
2022/01/25 07:10:17;;;;;;;32.87;13.93;;;;;;;;;;4740782;30;21199;-89
2022/01/25 07:13:24;;;;;;;32.73;13.73;;;;;;;;;;4741653;30;20674;-89
2022/01/25 07:16:31;;;;;;;27.33;13.30;;;;;;;;;;4722949;30;20573;-89
2022/01/25 07:19:36;;;;;;;29.17;12.47;;;;;;;;;;4723094;30;20577;-89
2022/01/25 07:22:41;;;;;;;32.40;11.80;;;;;;;;;;4722988;30;20640;-88
2022/01/25 07:25:45;;;;;;;27.70;11.90;;;;;;;;;;4732839;30;20557;-88
2022/01/25 07:28:50;;;;;;;38.53;12.67;;;;;;;;;;4737617;30;20651;-89
2022/01/25 07:31:55;;;;;;;35.50;13.03;;;;;;;;;;4740353;30;20643;-89
2022/01/25 07:35:00;;;;;;;26.40;12.03;;;;;;;;;;4740355;30;20577;-89
2022/01/25 07:38:04;;;;;;;46.07;16.60;;;;;;;;;;4750282;30;20637;-88
2022/01/25 07:41:09;;;;;;;31.67;13.10;;;;;;;;;;4740561;30;20563;-89
2022/01/25 07:44:14;;;;;;;45.43;21.63;;;;;;;;;;4750270;30;20560;-89
2022/01/25 07:47:18;;;;;;;28.50;13.23;;;;;;;;;;4740416;30;20568;-90
2022/01/25 07:50:22;;;;;;;36.90;16.20;;;;;;;;;;4749990;30;20619;-89
2022/01/25 07:53:27;;;;;;;37.30;18.37;;;;;;;;;;4739890;30;20659;-88
2022/01/25 07:56:31;;;;;;;21.83;11.47;;;;;;;;;;4739758;30;20980;-89
2022/01/25 07:59:35;;;;;;;25.23;12.17;;;;;;;;;;4740107;30;20905;-89
2022/01/25 08:02:41;;;;;;;20.13;10.03;;;;;;;;;;4739982;30;20726;-89
2022/01/25 08:05:45;;;;;;;18.93;9.93;;;;;;;;;;4739998;30;21108;-88
2022/01/25 08:08:51;;;;;;;42.73;20.27;;;;;;;;;;4739748;30;20668;-89
2022/01/25 08:11:56;;;;;;;27.53;14.87;;;;;;;;;;4749435;30;20666;-89
2022/01/25 08:15:02;;;;;;;22.63;10.83;;;;;;;;;;4740125;30;20623;-89
2022/01/25 08:18:07;;;;;;;25.67;12.23;;;;;;;;;;4739859;30;20630;-89
2022/01/25 08:21:12;;;;;;;43.03;11.47;;;;;;;;;;4749516;30;20560;-89
2022/01/25 08:24:21;;;;;;;24.77;12.97;;;;;;;;;;4739512;30;20627;-88
2022/01/25 08:27:25;;;;;;;24.40;13.37;;;;;;;;;;4750011;30;20645;-89
2022/01/25 08:30:29;;;;;;;20.40;11.63;;;;;;;;;;4739502;30;20619;-89
2022/01/25 08:33:34;;;;;;;21.83;11.47;;;;;;;;;;4749765;30;20992;-89
2022/01/25 08:36:39;;;;;;;19.47;9.50;;;;;;;;;;4743058;30;21110;-88
2022/01/25 08:39:44;;;;;;;28.37;13.97;;;;;;;;;;4745591;30;20921;-89
2022/01/25 08:42:48;;;;;;;18.70;9.80;;;;;;;;;;4745162;30;21193;-89
2022/01/25 08:45:52;;;;;;;17.93;9.27;;;;;;;;;;4755357;30;20626;-88
2022/01/25 08:48:56;;;;;;;17.57;9.67;;;;;;;;;;4745217;30;20616;-89
2022/01/25 08:52:00;;;;;;;35.77;10.47;;;;;;;;;;4755555;30;20985;-89
2022/01/25 08:55:06;;;;;;;17.47;10.50;;;;;;;;;;4745298;30;20555;-89
2022/01/25 08:58:11;;;;;;;27.27;10.20;;;;;;;;;;4745277;30;20559;-89
2022/01/25 09:01:15;;;;;;;17.30;10.60;;;;;;;;;;4745351;30;20556;-88
2022/01/25 09:04:19;;;;;;;24.00;15.13;;;;;;;;;;4745240;30;20575;-88
2022/01/25 09:07:23;;;;;;;19.83;9.80;;;;;;;;;;4745320;30;20555;-88
2022/01/25 09:10:27;;;;;;;25.13;10.03;;;;;;;;;;4755600;30;20608;-88
2022/01/25 09:13:32;;;;;;;21.40;8.20;;;;;;;;;;4744965;30;20657;-88
2022/01/25 09:16:37;;;;;;;15.17;9.00;;;;;;;;;;4765783;30;20894;-88
2022/01/25 09:19:41;;;;;;;19.00;10.67;;;;;;;;;;4768130;30;20549;-88
2022/01/25 09:22:46;;;;;;;22.37;11.23;;;;;;;;;;4766975;30;20651;-88
2022/01/25 09:25:51;;;;;;;21.93;12.70;;;;;;;;;;4755803;30;20606;-88
2022/01/25 09:28:58;;;;;;;16.40;8.97;;;;;;;;;;4763223;30;20900;-88
2022/01/25 09:32:03;;;;;;;23.63;9.73;;;;;;;;;;4763138;30;20635;-88
2022/01/25 09:35:07;;;;;;;47.60;10.40;;;;;;;;;;4783157;30;20577;-88
2022/01/25 09:38:11;;;;;;;18.30;8.93;;;;;;;;;;4762854;30;20562;-88
2022/01/25 09:41:15;;;;;;;33.93;19.73;;;;;;;;;;4762885;30;20551;-88
2022/01/25 09:44:20;;;;;;;24.23;11.90;;;;;;;;;;4763007;30;20625;-88
2022/01/25 09:47:25;;;;;;;21.23;11.10;;;;;;;;;;4762074;29;20621;-88
2022/01/25 09:50:29;;;;;;;21.63;10.70;;;;;;;;;;4760522;30;20611;-88
2022/01/25 09:53:33;;;;;;;24.37;11.13;;;;;;;;;;4769825;30;20640;-88
2022/01/25 09:56:37;;;;;;;21.20;11.37;;;;;;;;;;4760252;30;20564;-88
2022/01/25 09:59:42;;;;;;;26.50;13.47;;;;;;;;;;4760293;30;20555;-87
2022/01/25 10:02:57;;;;;;;20.03;10.37;;;;;;;;;;4770159;30;21217;-88
2022/01/25 10:06:03;;;;;;;24.20;11.27;;;;;;;;;;4780210;30;20559;-88
2022/01/25 10:09:07;;;;;;;30.83;12.17;;;;;;;;;;4759502;30;20627;-88
2022/01/25 10:12:23;;;;;;;24.73;12.47;;;;;;;;;;4769510;30;20657;-88
2022/01/25 10:15:27;;;;;;;32.53;12.83;;;;;;;;;;4769743;30;20571;-88
2022/01/25 10:18:38;;;;;;;22.10;10.80;;;;;;;;;;4759448;30;21122;-88
2022/01/25 10:21:49;;;;;;;21.93;11.23;;;;;;;;;;4769519;30;20638;-88
2022/01/25 10:24:53;;;;;;;21.47;10.77;;;;;;;;;;4759936;30;20568;-87
2022/01/25 10:28:04;;;;;;;24.07;11.83;;;;;;;;;;4756200;30;20639;-87
2022/01/25 10:31:09;;;;;;;20.93;10.77;;;;;;;;;;4730831;30;20668;-88
2022/01/25 10:34:20;;;;;;;19.70;11.03;;;;;;;;;;4751827;30;20552;-88
2022/01/25 10:37:26;;;;;;;19.17;11.20;;;;;;;;;;4751880;30;20637;-87
2022/01/25 10:40:37;;;;;;;19.93;9.27;;;;;;;;;;4751580;30;20591;-88
2022/01/25 10:43:45;;;;;;;20.90;10.40;;;;;;;;;;4761778;30;21171;-88
2022/01/25 10:46:49;;;;;;;20.80;10.00;;;;;;;;;;4741600;30;20555;-88
2022/01/25 10:49:53;;;;;;;19.00;10.43;;;;;;;;;;4761621;30;20662;-88
2022/01/25 10:53:09;;;;;;;26.50;12.70;;;;;;;;;;4761375;30;20651;-88
2022/01/25 10:56:14;;;;;;;23.60;10.93;;;;;;;;;;4751355;30;20560;-88
2022/01/25 10:59:21;;;;;;;19.40;9.73;;;;;;;;;;4760861;30;20583;-87
2022/01/25 11:02:27;;;;;;;22.03;10.80;;;;;;;;;;4750966;30;20639;-87
2022/01/25 11:05:34;;;;;;;21.13;10.43;;;;;;;;;;4751184;30;20560;-87
2022/01/25 11:08:39;;;;;;;22.57;11.27;;;;;;;;;;4751122;30;20556;-87
2022/01/25 11:11:52;;;;;;;24.70;13.20;;;;;;;;;;4784534;24;20660;-86
2022/01/25 11:14:58;;;;;;;39.40;23.37;;;;;;;;;;4708712;30;20641;-86
2022/01/25 11:18:05;;;;;;;23.60;13.00;;;;;;;;;;4699932;30;20622;-89
2022/01/25 11:21:11;;;;;;;24.00;12.13;;;;;;;;;;4715772;30;20566;-89
2022/01/25 11:24:16;;;;;;;22.50;10.97;;;;;;;;;;4698171;30;20564;-89
2022/01/25 11:27:23;;;;;;;22.50;10.40;;;;;;;;;;4703446;30;20592;-89
2022/01/25 11:30:28;;;;;;;21.37;10.37;;;;;;;;;;4690476;30;20656;-88
2022/01/25 11:33:33;;;;;;;21.00;10.40;;;;;;;;;;4681817;30;20642;-85
2022/01/25 11:37:05;;;;;;;24.20;9.67;;;;;;;;;;4681515;30;20560;-85
2022/01/25 11:40:31;;;;;;;20.97;10.97;;;;;;;;;;4690996;30;20549;-85
2022/01/25 11:43:36;;;;;;;19.60;10.33;;;;;;;;;;4690723;30;20651;-85
2022/01/25 11:46:45;;;;;;;25.20;12.07;;;;;;;;;;4690894;30;20567;-85
2022/01/25 11:49:56;;;;;;;22.83;12.50;;;;;;;;;;4681217;30;20619;-85
2022/01/25 11:53:07;;;;;;;25.53;11.33;;;;;;;;;;4690755;30;20648;-85
2022/01/25 11:56:12;;;;;;;23.07;11.00;;;;;;;;;;4690799;30;20923;-85
2022/01/25 11:59:16;;;;;;;24.63;12.17;;;;;;;;;;4681146;30;20636;-85
2022/01/25 12:02:39;;;;;;;41.07;21.47;;;;;;;;;;4690645;30;20650;-85
2022/01/25 12:06:07;;;;;;;29.73;14.40;;;;;;;;;;4680695;30;20551;-85
2022/01/25 12:09:21;;;;;;;21.20;11.20;;;;;;;;;;4680291;30;20563;-85
2022/01/25 12:12:25;;;;;;;23.10;11.27;;;;;;;;;;4685622;30;20674;-85
2022/01/25 12:15:29;;;;;;;19.77;10.27;;;;;;;;;;4704750;30;20618;-86
2022/01/25 12:18:54;;;;;;;25.07;12.10;;;;;;;;;;4700261;30;20612;-85
2022/01/25 12:22:15;;;;;;;26.57;13.47;;;;;;;;;;4697419;30;20646;-85
2022/01/25 12:25:34;;;;;;;25.27;12.77;;;;;;;;;;4687396;30;20979;-88
2022/01/25 12:28:44;;;;;;;26.23;12.40;;;;;;;;;;4701654;30;21203;-88
2022/01/25 12:31:49;;;;;;;27.63;12.07;;;;;;;;;;4684907;30;20666;-88
2022/01/25 12:35:05;;;;;;;35.27;15.57;;;;;;;;;;4691942;30;20640;-89
2022/01/25 12:38:25;;;;;;;25.63;12.43;;;;;;;;;;4681948;30;20607;-89
2022/01/25 12:41:31;;;;;;;24.43;11.73;;;;;;;;;;4682030;30;20630;-89
2022/01/25 12:44:37;;;;;;;22.30;10.93;;;;;;;;;;4689110;30;20630;-88
2022/01/25 12:47:52;;;;;;;25.63;11.47;;;;;;;;;;4699294;30;20614;-89
2022/01/25 12:51:00;;;;;;;23.67;10.83;;;;;;;;;;4680344;30;20665;-89
2022/01/25 12:54:08;;;;;;;22.23;11.30;;;;;;;;;;4689774;30;21125;-89
2022/01/25 12:57:12;;;;;;;23.33;11.33;;;;;;;;;;4679906;30;20625;-89
2022/01/25 13:00:17;;;;;;;29.60;11.93;;;;;;;;;;4690761;30;20602;-88
2022/01/25 13:03:31;;;;;;;23.73;11.33;;;;;;;;;;4698152;30;20680;-89
2022/01/25 13:06:43;;;;;;;22.27;10.83;;;;;;;;;;4704599;30;20614;-89
2022/01/25 13:09:50;;;;;;;29.57;12.90;;;;;;;;;;4697442;30;20564;-89
2022/01/25 13:12:57;;;;;;;26.20;11.80;;;;;;;;;;4702037;30;21309;-87
2022/01/25 13:16:01;;;;;;;26.50;11.83;;;;;;;;;;4679585;30;20574;-89
2022/01/25 13:19:06;;;;;;;27.27;13.53;;;;;;;;;;4679886;30;20567;-89
2022/01/25 13:22:18;;;;;;;34.67;18.67;;;;;;;;;;4680132;30;20643;-89
2022/01/25 13:25:34;;;;;;;26.37;13.30;;;;;;;;;;4693262;30;20563;-89
2022/01/25 13:31:44;;;;;;;28.77;12.97;;;;;;;;;;4692296;30;20674;-87
2022/01/25 13:35:12;;;;;;;37.87;19.50;;;;;;;;;;4691858;30;21198;-87
2022/01/25 13:38:32;;;;;;;33.07;17.30;;;;;;;;;;4699612;30;20623;-86
2022/01/25 13:41:41;;;;;;;30.77;14.83;;;;;;;;;;4718118;30;20620;-86
2022/01/25 13:48:12;;;;;;;29.53;14.10;;;;;;;;;;4682515;30;20576;-86
2022/01/25 13:51:18;;;;;;;29.50;14.10;;;;;;;;;;4690084;30;20662;-86
2022/01/25 13:54:25;;;;;;;30.07;14.53;;;;;;;;;;4700188;30;21112;-85
2022/01/25 13:57:29;;;;;;;32.03;14.70;;;;;;;;;;4683561;30;20571;-87
2022/01/25 14:00:35;;;;;;;32.50;14.60;;;;;;;;;;4675586;30;21111;-86
2022/01/25 14:04:02;;;;;;;30.17;14.07;;;;;;;;;;4691010;30;21268;-86
2022/01/25 14:07:07;;;;;;;29.50;13.83;;;;;;;;;;4699546;30;20565;-88
2022/01/25 14:10:18;;;;;;;30.37;14.00;;;;;;;;;;4683338;30;20603;-88
2022/01/25 14:21:40;;;;;;;35.50;16.33;;;;;;;;;;4685493;30;20611;-86
2022/01/25 14:23:46;;;;;;;40.83;20.23;;;;;;;;;;4708609;30;20670;-88
2022/01/25 14:26:50;;;;;;;33.77;16.47;;;;;;;;;;4698886;30;20617;-86
2022/01/25 14:29:55;;;;;;;38.90;18.93;;;;;;;;;;4694970;30;20976;-86
2022/01/25 14:33:12;;;;;;;38.00;17.67;;;;;;;;;;4689752;30;20637;-87
2022/01/25 14:36:16;;;;;;;40.30;19.97;;;;;;;;;;4699918;30;20606;-86
2022/01/25 14:39:20;;;;;;;41.20;19.17;;;;;;;;;;4700103;30;20618;-86
2022/01/25 14:42:29;;;;;;;34.93;17.43;;;;;;;;;;4701142;30;20670;-86
2022/01/25 14:45:33;;;;;;;33.10;16.37;;;;;;;;;;4707000;30;20618;-88
2022/01/25 14:48:41;;;;;;;35.57;16.50;;;;;;;;;;4700699;30;20575;-88
2022/01/25 14:51:48;;;;;;;28.97;13.47;;;;;;;;;;4700284;30;20677;-88
2022/01/25 14:54:52;;;;;;;35.77;16.03;;;;;;;;;;4710736;30;20572;-88
2022/01/25 15:01:22;;;;;;;32.33;15.13;;;;;;;;;;4700404;30;20643;-85
2022/01/25 15:04:31;;;;;;;28.20;14.10;;;;;;;;;;4700520;30;20567;-85
2022/01/25 15:07:38;;;;;;;30.73;14.60;;;;;;;;;;4710072;30;20567;-85
2022/01/25 15:10:45;;;;;;;38.77;17.63;;;;;;;;;;4700064;30;20633;-88
2022/01/25 15:13:58;;;;;;;30.33;14.47;;;;;;;;;;4699935;30;20658;-88
2022/01/25 15:17:03;;;;;;;30.87;14.10;;;;;;;;;;4700369;30;20612;-88
2022/01/25 15:20:15;;;;;;;27.20;13.00;;;;;;;;;;4711043;30;20579;-86
2022/01/25 15:23:21;;;;;;;30.47;14.37;;;;;;;;;;4701828;30;21015;-88
2022/01/25 15:26:28;;;;;;;32.10;15.00;;;;;;;;;;4710215;30;20576;-86
2022/01/25 15:29:32;;;;;;;28.90;14.70;;;;;;;;;;4700804;30;20576;-86
2022/01/25 15:32:36;;;;;;;32.07;15.20;;;;;;;;;;4701798;30;20681;-86
2022/01/25 15:35:41;;;;;;;25.77;12.43;;;;;;;;;;4699966;30;20614;-85
2022/01/25 15:38:48;;;;;;;37.83;18.77;;;;;;;;;;4692972;30;21243;-85
2022/01/25 15:41:56;;;;;;;33.97;14.30;;;;;;;;;;4696775;30;20606;-86
2022/01/25 15:45:10;;;;;;;31.67;13.77;;;;;;;;;;4710984;30;21194;-86
2022/01/25 15:48:14;;;;;;;33.37;15.77;;;;;;;;;;4693562;30;20610;-86
2022/01/25 15:51:19;;;;;;;35.50;14.73;;;;;;;;;;4686805;30;21238;-86
2022/01/25 15:54:25;;;;;;;27.57;15.07;;;;;;;;;;4697887;30;20564;-86
2022/01/25 15:57:30;;;;;;;31.07;13.37;;;;;;;;;;4698279;30;20578;-89
2022/01/25 16:00:35;;;;;;;32.00;15.03;;;;;;;;;;4682436;30;20571;-86
2022/01/25 16:03:41;;;;;;;35.70;15.90;;;;;;;;;;4682783;30;21016;-87
2022/01/25 16:06:45;;;;;;;34.63;13.43;;;;;;;;;;4684878;30;20615;-91
2022/01/25 16:09:54;;;;;;;39.87;19.37;;;;;;;;;;4699224;30;20624;-89
2022/01/25 16:12:59;;;;;;;24.43;12.87;;;;;;;;;;4701490;30;20689;-88
2022/01/25 16:16:03;;;;;;;29.43;13.10;;;;;;;;;;4701213;30;20566;-86
2022/01/25 16:19:08;;;;;;;25.53;13.57;;;;;;;;;;4698735;30;20623;-89
2022/01/25 16:22:15;;;;;;;36.07;18.33;;;;;;;;;;4695242;30;20243;-88
2022/01/25 16:25:20;;;;;;;39.77;21.17;;;;;;;;;;4719500;30;20557;-87
2022/01/25 16:32:43;;;;;;;34.13;16.43;;;;;;;;;;4694442;30;20240;-87
2022/01/25 16:35:48;;;;;;;39.80;17.53;;;;;;;;;;4696857;30;20619;-86
2022/01/25 16:38:52;;;;;;;51.93;25.07;;;;;;;;;;4693073;30;20618;-87
2022/01/25 16:41:58;;;;;;;43.73;20.20;;;;;;;;;;4689636;30;20648;-90
2022/01/25 16:45:06;;;;;;;55.67;25.43;;;;;;;;;;4700484;30;20611;-89
2022/01/25 16:48:10;;;;;;;41.63;17.70;;;;;;;;;;4696687;30;20567;-87
2022/01/25 16:51:15;;;;;;;38.63;18.80;;;;;;;;;;4693416;30;21197;-89
2022/01/25 16:54:19;;;;;;;61.33;30.60;;;;;;;;;;4691426;30;20576;-90
2022/01/25 16:57:24;;;;;;;43.03;23.03;;;;;;;;;;4680709;30;20578;-87
2022/01/25 17:00:31;;;;;;;59.13;28.70;;;;;;;;;;4683512;30;20638;-89
2022/01/25 17:07:44;;;;;;;40.10;19.13;;;;;;;;;;4703295;30;20567;-89
2022/01/25 17:10:49;;;;;;;41.73;19.20;;;;;;;;;;4683257;30;21127;-87
2022/01/25 17:13:54;;;;;;;36.33;18.07;;;;;;;;;;4773498;24;20721;-89
2022/01/25 17:16:59;;;;;;;41.63;18.00;;;;;;;;;;4751158;30;20961;-88
2022/01/25 17:20:05;;;;;;;42.03;20.20;;;;;;;;;;4734962;30;20611;-89
2022/01/25 17:23:09;;;;;;;45.67;22.17;;;;;;;;;;4720109;30;20649;-89
2022/01/25 17:26:14;;;;;;;46.07;20.00;;;;;;;;;;4720150;30;20569;-89
2022/01/25 17:29:19;;;;;;;45.57;21.20;;;;;;;;;;4726530;30;20987;-89
2022/01/25 17:32:23;;;;;;;44.53;19.30;;;;;;;;;;4706317;30;21267;-89
2022/01/25 17:35:28;;;;;;;44.40;20.60;;;;;;;;;;4716570;30;20621;-89
2022/01/25 17:38:32;;;;;;;43.67;19.77;;;;;;;;;;4709384;30;20594;-89
2022/01/25 17:41:37;;;;;;;39.93;20.63;;;;;;;;;;4723409;30;20691;-87
2022/01/25 17:44:43;;;;;;;42.37;19.37;;;;;;;;;;4717611;30;20569;-87
2022/01/25 17:47:47;;;;;;;44.10;19.40;;;;;;;;;;4717326;30;20629;-87
2022/01/25 17:50:52;;;;;;;42.00;18.80;;;;;;;;;;4718319;30;20565;-87
2022/01/25 17:53:57;;;;;;;36.87;17.33;;;;;;;;;;4718104;30;20636;-87
2022/01/25 17:57:01;;;;;;;47.70;20.33;;;;;;;;;;4735240;30;20637;-87
2022/01/25 18:00:08;;;;;;;40.43;18.53;;;;;;;;;;4723193;30;20590;-88
2022/01/25 18:03:20;;;;;;;41.13;17.97;;;;;;;;;;4729138;30;21240;-88
2022/01/25 18:06:24;;;;;;;36.47;16.20;;;;;;;;;;4727031;30;20561;-87
2022/01/25 18:09:30;;;;;;;39.93;19.03;;;;;;;;;;4715747;30;20919;-90
2022/01/25 18:12:35;;;;;;;40.90;18.43;;;;;;;;;;4726146;30;20688;-89
2022/01/25 18:15:39;;;;;;;56.77;26.67;;;;;;;;;;4708834;30;21185;-89
2022/01/25 18:18:45;;;;;;;56.20;25.13;;;;;;;;;;4734664;30;20612;-89
2022/01/25 18:21:49;;;;;;;46.30;21.67;;;;;;;;;;4727438;30;20906;-88
2022/01/25 18:28:26;;;;;;;48.60;22.47;;;;;;;;;;4725850;30;20645;-88
2022/01/25 18:31:56;;;;;;;37.40;19.27;;;;;;;;;;4723239;30;21197;-89
2022/01/25 18:35:01;;;;;;;43.80;22.17;;;;;;;;;;4727820;30;20602;-88
2022/01/25 18:38:05;;;;;;;52.60;22.27;;;;;;;;;;4728908;30;20625;-89
2022/01/25 18:41:09;;;;;;;53.47;22.10;;;;;;;;;;4700356;30;21148;-87
2022/01/25 18:44:14;;;;;;;49.43;21.30;;;;;;;;;;4734632;30;20656;-89
2022/01/25 18:47:18;;;;;;;49.23;20.47;;;;;;;;;;4727099;30;20626;-88
2022/01/25 18:50:22;;;;;;;56.57;24.30;;;;;;;;;;4700529;30;21201;-88
2022/01/25 18:53:26;;;;;;;54.83;22.43;;;;;;;;;;4727875;30;20673;-88
2022/01/25 18:56:31;;;;;;;50.13;21.47;;;;;;;;;;4727323;30;20602;-89
2022/01/25 18:59:35;;;;;;;51.10;19.93;;;;;;;;;;4726068;30;20614;-88
2022/01/25 19:02:42;;;;;;;43.63;18.97;;;;;;;;;;4728805;30;21028;-89
2022/01/25 19:05:46;;;;;;;46.07;19.33;;;;;;;;;;4724387;30;20601;-89
2022/01/25 19:08:51;;;;;;;48.63;21.47;;;;;;;;;;4735993;30;20629;-88
2022/01/25 19:12:02;;;;;;;52.50;21.03;;;;;;;;;;4715716;30;20567;-88
2022/01/25 19:15:09;;;;;;;50.73;20.57;;;;;;;;;;4723122;30;20701;-89
2022/01/25 19:18:13;;;;;;;55.10;21.17;;;;;;;;;;4718710;30;20931;-88
2022/01/25 19:21:27;;;;;;;53.63;19.80;;;;;;;;;;4717825;30;20982;-88
2022/01/25 19:24:35;;;;;;;53.03;20.70;;;;;;;;;;4714708;30;20615;-90
2022/01/25 19:27:43;;;;;;;58.27;21.10;;;;;;;;;;4726564;30;21009;-89
2022/01/25 19:30:48;;;;;;;56.13;22.90;;;;;;;;;;4718234;30;20565;-90
2022/01/25 19:34:25;;;;;;;58.50;21.60;;;;;;;;;;4727467;30;20685;-89
2022/01/25 19:37:30;;;;;;;51.50;21.63;;;;;;;;;;4718134;30;20622;-90
2022/01/25 19:40:35;;;;;;;56.93;21.33;;;;;;;;;;4726814;30;20962;-89
2022/01/25 19:43:48;;;;;;;49.00;20.57;;;;;;;;;;4733581;30;20665;-90
2022/01/25 19:46:55;;;;;;;46.47;19.43;;;;;;;;;;4706818;30;20570;-90
2022/01/25 19:54:26;;;;;;;47.87;19.33;;;;;;;;;;4725391;25;20700;-90
2022/01/25 19:57:31;;;;;;;57.53;21.77;;;;;;;;;;4718728;30;20914;-90
2022/01/25 20:00:37;;;;;;;54.10;21.50;;;;;;;;;;4710775;30;21228;-90
2022/01/25 20:03:43;;;;;;;48.90;20.50;;;;;;;;;;4711893;30;20663;-90